createdAt,value
2018-01-25T00:01:20.276Z,1.83
2018-01-25T00:03:48.100Z,1.70
2018-01-25T00:06:15.939Z,4.77
2018-01-25T00:08:44.082Z,3.77
2018-01-25T00:11:12.299Z,2.23
2018-01-25T00:13:40.163Z,1.97
2018-01-25T00:16:08.044Z,5.30
2018-01-25T00:18:42.285Z,2.07
2018-01-25T00:21:10.128Z,2.10
2018-01-25T00:23:38.025Z,1.70
2018-01-25T00:26:05.892Z,4.43
2018-01-25T00:28:40.509Z,2.50
2018-01-25T00:31:09.162Z,2.57
2018-01-25T00:33:37.116Z,1.93
2018-01-25T00:36:06.325Z,3.07
2018-01-25T00:38:34.287Z,2.30
2018-01-25T00:41:02.132Z,2.43
2018-01-25T00:43:30.009Z,2.07
2018-01-25T00:45:57.889Z,1.43
2018-01-25T00:48:34.360Z,1.90
2018-01-25T00:51:02.213Z,1.87
2018-01-25T00:53:30.044Z,1.33
2018-01-25T00:55:57.897Z,1.20
2018-01-25T00:58:25.719Z,1.57
2018-01-25T01:00:53.562Z,0.80
2018-01-25T01:03:21.393Z,1.10
2018-01-25T01:05:50.708Z,1.00
2018-01-25T01:11:08.860Z,1.30
2018-01-25T01:13:36.676Z,0.80
2018-01-25T01:16:04.532Z,1.90
2018-01-25T01:18:33.928Z,1.50
2018-01-25T01:21:01.800Z,3.90
2018-01-25T01:23:29.702Z,1.10
2018-01-25T01:25:57.539Z,1.10
2018-01-25T01:28:26.706Z,1.50
2018-01-25T01:30:54.873Z,1.13
2018-01-25T01:33:22.819Z,2.10
2018-01-25T01:35:50.668Z,1.73
2018-01-25T01:38:18.492Z,1.37
2018-01-25T01:40:46.342Z,0.90
2018-01-25T01:43:14.197Z,1.27
2018-01-25T01:45:42.055Z,0.83
2018-01-25T01:48:33.608Z,1.20
2018-01-25T01:51:01.469Z,3.90
2018-01-25T01:53:29.292Z,2.73
2018-01-25T01:55:57.104Z,1.07
2018-01-25T02:01:25.779Z,0.80
2018-01-25T02:03:53.635Z,1.77
2018-01-25T02:06:21.483Z,4.80
2018-01-25T02:08:49.385Z,2.57
2018-01-25T02:11:17.216Z,1.83
2018-01-25T02:13:45.064Z,1.53
2018-01-25T02:16:12.908Z,3.00
2018-01-25T02:18:40.776Z,1.83
2018-01-25T02:21:08.612Z,2.33
2018-01-25T02:23:36.447Z,1.67
2018-01-25T02:26:04.283Z,1.23
2018-01-25T02:28:32.144Z,0.93
2018-01-25T02:30:59.996Z,1.57
2018-01-25T02:33:29.065Z,2.03
2018-01-25T02:35:56.996Z,2.20
2018-01-25T02:38:24.838Z,3.70
2018-01-25T02:40:52.716Z,1.87
2018-01-25T02:43:20.574Z,5.50
2018-01-25T02:45:48.421Z,2.20
2018-01-25T02:48:16.273Z,1.77
2018-01-25T02:50:44.115Z,3.30
2018-01-25T02:53:11.962Z,2.27
2018-01-25T02:55:39.814Z,1.70
2018-01-25T02:58:15.926Z,2.10
2018-01-25T03:00:44.059Z,1.90
2018-01-25T03:03:11.993Z,2.90
2018-01-25T03:05:39.824Z,2.30
2018-01-25T03:08:25.068Z,2.20
2018-01-25T03:10:52.900Z,1.60
2018-01-25T03:13:20.726Z,2.67
2018-01-25T03:15:48.552Z,1.80
2018-01-25T03:18:16.399Z,2.03
2018-01-25T03:20:44.210Z,3.00
2018-01-25T03:23:12.063Z,3.73
2018-01-25T03:25:41.652Z,2.30
2018-01-25T03:28:09.491Z,7.80
2018-01-25T03:30:37.337Z,2.83
2018-01-25T03:33:05.188Z,3.20
2018-01-25T03:35:34.352Z,8.93
2018-01-25T03:38:02.700Z,2.80
2018-01-25T03:40:30.552Z,2.93
2018-01-25T03:43:13.212Z,2.40
2018-01-25T03:45:41.301Z,3.37
2018-01-25T03:48:09.164Z,4.23
2018-01-25T03:50:37.015Z,2.53
2018-01-25T03:53:04.868Z,5.40
2018-01-25T03:55:32.716Z,6.33
2018-01-25T03:58:00.547Z,4.53
2018-01-25T04:00:28.394Z,6.13
2018-01-25T04:02:58.440Z,7.90
2018-01-25T04:05:26.511Z,4.10
2018-01-25T04:07:54.433Z,7.03
2018-01-25T04:10:22.267Z,7.37
2018-01-25T04:12:50.090Z,10.57
2018-01-25T04:15:17.932Z,10.17
2018-01-25T04:17:45.797Z,6.90
2018-01-25T04:20:13.664Z,11.67
2018-01-25T04:22:42.888Z,8.90
2018-01-25T04:25:10.826Z,8.30
2018-01-25T04:27:38.636Z,10.90
2018-01-25T04:30:06.496Z,11.40
2018-01-25T04:32:34.404Z,10.50
2018-01-25T04:35:02.263Z,12.23
2018-01-25T04:37:36.304Z,8.83
2018-01-25T04:40:04.124Z,13.13
2018-01-25T04:42:33.364Z,16.30
2018-01-25T04:45:02.077Z,15.13
2018-01-25T04:47:35.876Z,7.70
2018-01-25T04:50:03.717Z,15.37
2018-01-25T04:52:31.550Z,14.90
2018-01-25T04:54:59.376Z,12.80
2018-01-25T04:57:28.802Z,20.37
2018-01-25T05:00:11.625Z,10.57
2018-01-25T05:02:39.488Z,13.23
2018-01-25T05:05:07.321Z,10.93
2018-01-25T05:07:36.055Z,11.23
2018-01-25T05:10:04.136Z,12.00
2018-01-25T05:12:33.748Z,13.00
2018-01-25T05:15:01.693Z,13.60
2018-01-25T05:17:32.548Z,7.53
2018-01-25T05:20:00.400Z,13.60
2018-01-25T05:22:28.250Z,13.03
2018-01-25T05:24:56.102Z,13.13
2018-01-25T05:27:29.065Z,9.00
2018-01-25T05:29:56.913Z,16.23
2018-01-25T05:32:24.776Z,17.30
2018-01-25T05:34:53.238Z,10.90
2018-01-25T05:40:09.782Z,16.50
2018-01-25T05:42:37.953Z,16.60
2018-01-25T05:45:05.967Z,13.30
2018-01-25T05:47:33.814Z,20.83
2018-01-25T05:50:01.628Z,18.40
2018-01-25T05:52:31.555Z,30.77
2018-01-25T05:54:59.564Z,18.23
2018-01-25T05:57:27.398Z,19.47
2018-01-25T05:59:55.239Z,18.23
2018-01-25T06:02:41.499Z,12.70
2018-01-25T06:05:09.536Z,18.53
2018-01-25T06:07:44.216Z,20.00
2018-01-25T06:10:12.066Z,15.97
2018-01-25T06:12:39.913Z,28.50
2018-01-25T06:15:08.401Z,21.13
2018-01-25T06:20:40.911Z,26.40
2018-01-25T06:23:12.041Z,16.23
2018-01-25T06:25:40.876Z,27.47
2018-01-25T06:28:09.220Z,20.57
2018-01-25T06:30:43.984Z,35.67
2018-01-25T06:33:12.109Z,26.37
2018-01-25T06:35:39.972Z,22.93
2018-01-25T06:38:14.597Z,22.73
2018-01-25T06:40:42.435Z,27.50
2018-01-25T06:43:10.272Z,23.43
2018-01-25T06:45:38.115Z,30.97
2018-01-25T06:48:12.122Z,18.90
2018-01-25T06:50:40.015Z,21.03
2018-01-25T06:53:07.839Z,18.60
2018-01-25T06:55:35.686Z,26.17
2018-01-25T06:58:03.566Z,25.40
2018-01-25T07:00:37.842Z,23.40
2018-01-25T07:03:05.737Z,20.30
2018-01-25T07:05:33.594Z,30.30
2018-01-25T07:08:01.438Z,34.97
2018-01-25T07:10:30.303Z,27.33
2018-01-25T07:12:58.132Z,37.87
2018-01-25T07:15:27.340Z,24.23
2018-01-25T07:17:55.164Z,26.17
2018-01-25T07:20:22.985Z,22.87
2018-01-25T07:22:50.840Z,27.27
2018-01-25T07:25:18.693Z,23.23
2018-01-25T07:27:48.166Z,25.93
2018-01-25T07:33:08.629Z,29.60
2018-01-25T07:35:36.500Z,30.07
2018-01-25T07:38:04.758Z,38.50
2018-01-25T07:40:33.765Z,33.40
2018-01-25T07:43:01.607Z,26.10
2018-01-25T07:45:29.473Z,35.63
2018-01-25T07:47:57.337Z,31.00
2018-01-25T07:50:25.296Z,25.30
2018-01-25T07:52:53.162Z,24.47
2018-01-25T07:55:24.756Z,26.10
2018-01-25T08:03:40.577Z,34.63
2018-01-25T08:06:08.408Z,28.87
2018-01-25T08:08:42.462Z,26.37
2018-01-25T08:11:11.228Z,26.50
2018-01-25T08:13:39.123Z,23.30
2018-01-25T08:16:13.065Z,26.43
2018-01-25T08:18:40.911Z,23.63
2018-01-25T08:21:08.719Z,32.87
2018-01-25T08:23:37.849Z,27.77
2018-01-25T08:26:05.813Z,30.43
2018-01-25T08:28:40.188Z,32.87
2018-01-25T08:31:08.018Z,15.80
2018-01-25T08:33:35.883Z,28.57
2018-01-25T08:36:03.720Z,26.30
2018-01-25T08:38:33.309Z,25.67
2018-01-25T08:41:10.957Z,33.07
2018-01-25T08:43:42.592Z,25.23
2018-01-25T08:46:10.461Z,35.57
2018-01-25T08:48:42.152Z,31.63
2018-01-25T08:51:11.832Z,26.23
2018-01-25T08:53:39.672Z,26.13
2018-01-25T08:56:08.291Z,31.33
2018-01-25T08:58:36.184Z,26.33
2018-01-25T09:01:04.025Z,31.67
2018-01-25T09:03:31.884Z,31.73
2018-01-25T09:05:59.750Z,27.07
2018-01-25T09:08:44.997Z,19.57
2018-01-25T09:14:09.480Z,39.70
2018-01-25T09:19:38.025Z,31.37
2018-01-25T09:22:11.601Z,19.07
2018-01-25T09:24:41.080Z,23.60
2018-01-25T09:30:13.803Z,22.23
2018-01-25T09:32:43.364Z,23.13
2018-01-25T09:35:11.202Z,26.63
2018-01-25T09:37:46.056Z,21.43
2018-01-25T09:40:13.916Z,25.43
2018-01-25T09:42:41.757Z,18.33
2018-01-25T09:45:09.606Z,21.03
2018-01-25T09:47:37.473Z,29.73
2018-01-25T09:50:05.307Z,23.70
2018-01-25T09:52:33.170Z,31.07
2018-01-25T09:55:03.300Z,31.90
2018-01-25T09:57:31.244Z,30.63
2018-01-25T10:00:00.236Z,29.00
2018-01-25T10:02:28.155Z,24.60
2018-01-25T10:04:56.063Z,27.13
2018-01-25T10:07:23.892Z,23.50
2018-01-25T10:09:51.740Z,22.30
2018-01-25T10:12:19.584Z,16.10
2018-01-25T10:14:47.419Z,26.63
2018-01-25T10:17:15.241Z,32.40
2018-01-25T10:19:43.106Z,25.97
2018-01-25T10:22:12.002Z,19.17
2018-01-25T10:24:39.880Z,20.30
2018-01-25T10:27:07.689Z,29.73
2018-01-25T10:29:35.542Z,22.40
2018-01-25T10:32:03.360Z,25.07
2018-01-25T10:34:33.029Z,26.90
2018-01-25T10:37:00.899Z,24.60
2018-01-25T10:39:28.719Z,24.67
2018-01-25T10:41:56.530Z,26.20
2018-01-25T10:44:24.852Z,28.83
2018-01-25T10:49:47.920Z,29.43
2018-01-25T10:52:15.802Z,22.77
2018-01-25T10:54:43.655Z,28.83
2018-01-25T10:57:11.484Z,30.67
2018-01-25T10:59:39.392Z,25.03
2018-01-25T11:04:54.582Z,25.17
2018-01-25T11:07:41.717Z,36.47
2018-01-25T11:13:05.263Z,33.57
2018-01-25T11:15:33.406Z,26.97
2018-01-25T11:18:01.231Z,32.07
2018-01-25T11:20:29.109Z,24.43
2018-01-25T11:22:58.841Z,27.73
2018-01-25T11:25:26.970Z,25.03
2018-01-25T11:28:12.290Z,32.40
2018-01-25T11:30:40.148Z,23.40
2018-01-25T11:33:07.955Z,28.43
2018-01-25T11:35:35.788Z,36.63
2018-01-25T11:38:03.632Z,29.57
2018-01-25T11:40:31.481Z,29.43
2018-01-25T11:43:06.065Z,22.43
2018-01-25T11:45:33.921Z,27.67
2018-01-25T11:48:08.518Z,24.03
2018-01-25T11:50:36.625Z,23.07
2018-01-25T11:53:04.720Z,29.80
2018-01-25T11:55:32.519Z,30.10
2018-01-25T12:00:48.108Z,28.17
2018-01-25T12:03:15.940Z,29.73
2018-01-25T12:05:45.322Z,34.23
2018-01-25T12:08:13.227Z,32.27
2018-01-25T12:10:41.072Z,25.77
2018-01-25T12:13:08.908Z,25.00
2018-01-25T12:15:38.365Z,34.63
2018-01-25T12:18:06.247Z,40.97
2018-01-25T12:20:35.932Z,29.83
2018-01-25T12:23:03.904Z,25.63
2018-01-25T12:25:31.744Z,40.03
2018-01-25T12:28:06.502Z,23.90
2018-01-25T12:30:35.870Z,34.00
2018-01-25T12:33:11.389Z,30.27
2018-01-25T12:38:50.540Z,30.30
2018-01-25T12:41:18.390Z,34.33
2018-01-25T12:43:46.204Z,27.30
2018-01-25T12:46:14.028Z,28.00
2018-01-25T12:48:49.536Z,30.73
2018-01-25T12:51:17.364Z,26.43
2018-01-25T12:53:45.175Z,43.63
2018-01-25T12:56:12.991Z,42.17
2018-01-25T12:58:47.452Z,22.33
2018-01-25T13:01:15.268Z,33.23
2018-01-25T13:03:43.168Z,28.27
2018-01-25T13:09:13.682Z,31.27
2018-01-25T13:11:42.511Z,33.50
2018-01-25T13:14:10.347Z,36.37
2018-01-25T13:16:38.821Z,36.10
2018-01-25T13:19:06.648Z,35.93
2018-01-25T13:21:36.044Z,34.47
2018-01-25T13:24:04.002Z,31.70
2018-01-25T13:26:31.840Z,37.13
2018-01-25T13:29:00.378Z,36.40
2018-01-25T13:31:28.173Z,39.03
2018-01-25T13:33:55.991Z,47.73
2018-01-25T13:36:25.773Z,43.03
2018-01-25T13:38:53.669Z,53.43
2018-01-25T13:41:22.329Z,40.87
2018-01-25T13:43:50.202Z,22.17
2018-01-25T13:46:18.013Z,32.47
2018-01-25T13:48:47.665Z,38.07
2018-01-25T13:54:09.026Z,38.30
2018-01-25T13:56:36.882Z,38.13
2018-01-25T13:59:04.716Z,45.73
2018-01-25T14:01:32.525Z,28.20
2018-01-25T14:04:00.349Z,34.97
2018-01-25T14:06:28.201Z,46.00
2018-01-25T14:08:55.997Z,30.37
2018-01-25T14:11:23.835Z,34.50
2018-01-25T14:13:51.661Z,43.03
2018-01-25T14:19:19.858Z,40.67
2018-01-25T14:21:47.672Z,42.57
2018-01-25T14:24:15.498Z,32.90
2018-01-25T14:26:45.511Z,42.07
2018-01-25T14:29:13.390Z,30.67
2018-01-25T14:31:41.201Z,31.27
2018-01-25T14:34:10.468Z,46.10
2018-01-25T14:36:38.308Z,35.20
2018-01-25T14:39:13.065Z,34.90
2018-01-25T14:44:20.680Z,55.53
2018-01-25T14:49:43.431Z,40.93
2018-01-25T14:52:11.240Z,37.00
2018-01-25T14:54:39.081Z,51.17
2018-01-25T14:57:06.906Z,37.13
2018-01-25T14:59:41.905Z,37.70
2018-01-25T15:02:09.883Z,40.37
2018-01-25T15:04:37.714Z,30.80
2018-01-25T15:07:05.556Z,36.53
2018-01-25T15:09:33.367Z,28.73
2018-01-25T15:12:01.187Z,38.33
2018-01-25T15:14:28.999Z,35.63
2018-01-25T15:16:56.816Z,37.43
2018-01-25T15:19:24.631Z,37.83
2018-01-25T15:21:52.471Z,40.70
2018-01-25T15:24:21.901Z,30.83
2018-01-25T15:29:50.145Z,35.40
2018-01-25T15:32:17.972Z,38.50
2018-01-25T15:34:45.800Z,36.97
2018-01-25T15:37:14.886Z,43.20
2018-01-25T15:39:42.787Z,32.57
2018-01-25T15:42:10.600Z,48.83
2018-01-25T15:44:40.149Z,38.70
2018-01-25T15:47:16.118Z,50.10
2018-01-25T15:49:43.954Z,32.10
2018-01-25T15:52:11.788Z,29.70
2018-01-25T15:54:39.640Z,41.13
2018-01-25T15:57:09.395Z,42.07
2018-01-25T15:59:37.472Z,39.40
2018-01-25T16:02:11.592Z,41.60
2018-01-25T16:04:39.427Z,36.00
2018-01-25T16:07:07.250Z,38.93
2018-01-25T16:09:35.081Z,45.53
2018-01-25T16:12:02.908Z,28.13
2018-01-25T16:14:33.138Z,31.10
2018-01-25T16:20:02.424Z,32.37
2018-01-25T16:22:30.260Z,38.83
2018-01-25T16:24:59.457Z,33.17
2018-01-25T16:27:27.359Z,33.23
2018-01-25T16:29:57.153Z,40.40
2018-01-25T16:32:24.972Z,45.73
2018-01-25T16:34:52.805Z,47.33
2018-01-25T16:37:27.069Z,31.57
2018-01-25T16:39:56.800Z,35.73
2018-01-25T16:45:19.815Z,37.63
2018-01-25T16:50:40.297Z,49.20
2018-01-25T16:53:11.415Z,34.60
2018-01-25T16:55:39.938Z,42.90
2018-01-25T16:58:14.653Z,44.40
2018-01-25T17:00:42.493Z,58.90
2018-01-25T17:03:13.516Z,37.43
2018-01-25T17:05:41.489Z,44.27
2018-01-25T17:08:15.822Z,45.77
2018-01-25T17:10:45.302Z,36.87
2018-01-25T17:13:13.121Z,40.40
2018-01-25T17:15:40.951Z,44.53
2018-01-25T17:18:08.794Z,41.90
2018-01-25T17:20:36.638Z,48.83
2018-01-25T17:23:04.464Z,43.07
2018-01-25T17:25:32.280Z,45.80
2018-01-25T17:28:00.119Z,41.53
2018-01-25T17:30:27.951Z,45.13
2018-01-25T17:32:57.393Z,41.60
2018-01-25T17:35:25.308Z,53.77
2018-01-25T17:37:59.339Z,34.80
2018-01-25T17:40:27.160Z,45.57
2018-01-25T17:42:54.975Z,41.27
2018-01-25T17:45:22.860Z,44.53
2018-01-25T17:47:56.689Z,51.40
2018-01-25T17:50:25.933Z,44.63
2018-01-25T17:52:53.775Z,45.53
2018-01-25T17:55:21.576Z,42.30
2018-01-25T17:57:55.928Z,42.73
2018-01-25T18:00:23.752Z,50.57
2018-01-25T18:02:51.582Z,45.33
2018-01-25T18:05:19.422Z,45.47
2018-01-25T18:07:47.259Z,49.30
2018-01-25T18:10:15.092Z,42.80
2018-01-25T18:12:42.917Z,50.13
2018-01-25T18:15:10.788Z,59.57
2018-01-25T18:17:40.180Z,42.90
2018-01-25T18:20:11.229Z,50.10
2018-01-25T18:22:39.036Z,47.53
2018-01-25T18:25:07.016Z,48.30
2018-01-25T18:27:34.899Z,50.93
2018-01-25T18:30:02.712Z,52.00
2018-01-25T18:32:30.567Z,54.50
2018-01-25T18:34:58.431Z,65.83
2018-01-25T18:40:14.157Z,60.23
2018-01-25T18:42:42.024Z,55.30
2018-01-25T18:45:11.497Z,67.17
2018-01-25T18:47:39.332Z,55.63
2018-01-25T18:50:11.711Z,56.37
2018-01-25T18:52:39.552Z,59.37
2018-01-25T18:55:07.389Z,55.40
2018-01-25T18:57:35.218Z,57.47
2018-01-25T19:00:03.068Z,54.23
2018-01-25T19:02:31.326Z,60.83
2018-01-25T19:05:03.679Z,49.63
2018-01-25T19:07:31.612Z,58.20
2018-01-25T19:10:06.594Z,61.83
2018-01-25T19:15:29.111Z,62.17
2018-01-25T19:17:56.959Z,65.70
2018-01-25T19:20:25.740Z,56.77
2018-01-25T19:22:53.712Z,50.80
2018-01-25T19:25:21.540Z,63.17
2018-01-25T19:30:40.510Z,55.07
2018-01-25T19:33:08.384Z,53.00
2018-01-25T19:35:36.253Z,63.97
2018-01-25T19:38:04.112Z,67.40
2018-01-25T19:40:42.528Z,55.13
2018-01-25T19:43:10.373Z,59.00
2018-01-25T19:45:38.241Z,64.43
2018-01-25T19:57:59.131Z,58.00
2018-01-25T20:00:27.032Z,58.93
2018-01-25T20:02:56.533Z,64.33
2018-01-25T20:05:24.457Z,60.17
2018-01-25T20:08:01.149Z,59.80
2018-01-25T20:10:30.599Z,74.27
2018-01-25T20:12:58.589Z,70.50
2018-01-25T20:21:14.559Z,57.00
2018-01-25T20:23:43.889Z,56.37
2018-01-25T20:26:11.734Z,58.13
2018-01-25T20:28:39.586Z,64.73
2018-01-25T20:31:07.441Z,58.93
2018-01-25T20:33:35.256Z,48.27
2018-01-25T20:36:04.124Z,56.63
2018-01-25T20:38:41.574Z,60.37
2018-01-25T20:41:10.063Z,64.50
2018-01-25T20:43:38.882Z,48.83
2018-01-25T20:46:25.302Z,60.40
2018-01-25T20:49:11.228Z,68.07
2018-01-25T20:51:39.100Z,56.73
2018-01-25T20:54:06.968Z,54.30
2018-01-25T20:56:34.793Z,62.60
2018-01-25T20:59:02.638Z,55.27
2018-01-25T21:01:30.612Z,61.60
2018-01-25T21:03:58.447Z,63.33
2018-01-25T21:06:26.309Z,64.80
2018-01-25T21:08:56.152Z,50.93
2018-01-25T21:11:24.052Z,57.10
2018-01-25T21:13:51.895Z,53.43
2018-01-25T21:16:19.741Z,60.63
2018-01-25T21:18:47.602Z,53.90
2018-01-25T21:21:15.487Z,59.43
2018-01-25T21:23:43.628Z,60.37
2018-01-25T21:26:11.648Z,59.03
2018-01-25T21:31:27.137Z,61.53
2018-01-25T21:33:55.285Z,57.20
2018-01-25T21:36:23.148Z,62.40
2018-01-25T21:44:39.804Z,68.23
2018-01-25T21:47:09.698Z,52.20
2018-01-25T21:52:33.200Z,52.43
2018-01-25T21:55:01.248Z,58.40
2018-01-25T21:57:29.232Z,52.97
2018-01-25T21:59:59.625Z,52.17
2018-01-25T22:02:42.032Z,53.57
2018-01-25T22:05:10.032Z,49.70
2018-01-25T22:07:38.330Z,52.50
2018-01-25T22:10:06.218Z,48.03
2018-01-25T22:12:34.172Z,63.90
2018-01-25T22:15:02.143Z,56.63
2018-01-25T22:17:30.405Z,50.37
2018-01-25T22:19:58.751Z,57.07
2018-01-25T22:22:27.916Z,55.43
2018-01-25T22:30:58.756Z,52.40
2018-01-25T22:33:26.916Z,51.53
2018-01-25T22:35:54.876Z,53.30
2018-01-25T22:38:22.727Z,46.80
2018-01-25T22:40:50.573Z,50.90
2018-01-25T22:46:08.327Z,51.83
2018-01-25T22:48:36.237Z,57.83
2018-01-25T22:51:04.064Z,47.07
2018-01-25T22:53:31.883Z,56.53
2018-01-25T22:59:16.098Z,47.90
2018-01-25T23:01:45.006Z,44.30
2018-01-25T23:04:13.017Z,44.53
2018-01-25T23:06:41.674Z,51.67
2018-01-25T23:09:09.744Z,44.97
2018-01-25T23:11:37.651Z,51.47
2018-01-25T23:14:06.495Z,42.40
2018-01-25T23:19:08.966Z,41.63
2018-01-25T23:21:36.833Z,40.00
2018-01-25T23:24:04.863Z,48.87
2018-01-25T23:26:32.864Z,43.73
2018-01-25T23:29:00.749Z,43.90
2018-01-25T23:31:28.609Z,42.33
2018-01-25T23:33:56.428Z,54.00
2018-01-25T23:36:25.267Z,43.77
2018-01-25T23:38:53.200Z,35.20
2018-01-25T23:41:21.063Z,38.83
2018-01-25T23:43:48.892Z,43.93
2018-01-25T23:46:17.345Z,46.97
2018-01-25T23:48:45.221Z,41.47
2018-01-25T23:51:13.056Z,71.70
2018-01-25T23:53:41.916Z,52.90
2018-01-25T23:56:09.842Z,44.00
2018-01-25T23:58:37.716Z,42.37
